»·PEaware :: N290TW KEUG-KPDX

N290TW :: KEUG-KPDX

FLIGHT INFORMATION

Flight Status: Arrived
Operator: Privately registered:
United States
More flights under this callsign
Pilot: Chris B. (23589)
Aircraft: CESSNA 172 SKYHAWK
(C172)
More flights by this aircraft type
Origin: KEUG Mahlon Sweet
United States
Destination: KPDX Portland Intl
United States
More flights between these airports :: More routes between these airports
Route: +EUG1 EUG V448 MULES
File this flight plan on PilotEdge
Remarks:
Altitude:
(Current/Filed)
7,000ft
Speed:
(Current/Filed)
110kts
Departed: 24-Jun-20 06:02 PM
Arrived: 24-Jun-20 07:05 PM
Distance/Time
Traveled:
92nm/1:03
Distance/Time
To Go:
Arrived

Flight Plot

Page will automatically refresh every two minutes.


Map Options




Map Legend


Flown Route
Filed Route
Departure Airport
Arrival Airport
Navaid (VOR, NDB)
Fix

Horizontal Profiles

Position Reports

Time Latitude Longitude Heading Altitude Ground
Speed
24-Jun-20 17:44 44.110851 -123.214947 359 368ft 0kts
24-Jun-20 17:45 44.110851 -123.214947 359 368ft 0kts
24-Jun-20 17:46 44.110851 -123.214947 359 368ft 0kts
24-Jun-20 17:47 44.110851 -123.214947 359 368ft 0kts
24-Jun-20 17:48 44.110851 -123.214947 359 368ft 0kts
24-Jun-20 17:49 44.110851 -123.214947 359 368ft 0kts
24-Jun-20 17:50 44.110851 -123.214947 359 368ft 0kts
24-Jun-20 17:51 44.110851 -123.214947 359 368ft 0kts
24-Jun-20 17:52 44.110851 -123.214947 359 368ft 0kts
24-Jun-20 17:53 44.110851 -123.214947 359 368ft 0kts
24-Jun-20 17:54 44.110851 -123.214947 359 368ft 0kts
24-Jun-20 17:55 44.110851 -123.214947 359 368ft 0kts
24-Jun-20 17:55 44.111438 -123.214934 352 368ft 9kts
24-Jun-20 17:57 44.112882 -123.216880 359 368ft 7kts
24-Jun-20 17:58 44.113680 -123.217387 269 367ft 0kts
24-Jun-20 17:58 44.113680 -123.217387 269 367ft 0kts
24-Jun-20 17:59 44.113680 -123.217387 269 367ft 0kts
24-Jun-20 18:01 44.113680 -123.217432 269 366ft 3kts
24-Jun-20 18:01 44.120224 -123.218910 2 514ft 71kts
24-Jun-20 18:02 44.138818 -123.220204 359 1540ft 67kts
24-Jun-20 18:03 44.157494 -123.221532 358 2436ft 68kts
24-Jun-20 18:04 44.176347 -123.224756 0 3260ft 68kts
24-Jun-20 18:05 44.179160 -123.231832 192 3975ft 85kts
24-Jun-20 18:06 44.154956 -123.237382 194 4671ft 89kts
24-Jun-20 18:07 44.130494 -123.243581 194 5345ft 90kts
24-Jun-20 18:08 44.125892 -123.224112 45 5925ft 81kts
24-Jun-20 18:09 44.142491 -123.205777 16 6531ft 76kts
24-Jun-20 18:10 44.161723 -123.189576 21 6971ft 95kts
24-Jun-20 18:11 44.186591 -123.169755 31 7026ft 111kts
24-Jun-20 18:12 44.211968 -123.146603 27 6972ft 107kts
24-Jun-20 18:13 44.237380 -123.126955 21 7010ft 104kts
24-Jun-20 18:14 44.263078 -123.108307 24 7036ft 107kts
24-Jun-20 18:15 44.289090 -123.087086 26 7012ft 108kts
24-Jun-20 18:16 44.314488 -123.065104 26 7009ft 106kts
24-Jun-20 18:17 44.340195 -123.044841 22 7029ft 107kts
24-Jun-20 18:18 44.366219 -123.023130 27 7023ft 109kts
24-Jun-20 18:19 44.392487 -123.001308 23 6977ft 109kts
24-Jun-20 18:20 44.418448 -122.979799 25 7009ft 108kts
24-Jun-20 18:21 44.444577 -122.957732 24 7045ft 111kts
24-Jun-20 18:22 44.471489 -122.936440 23 7036ft 112kts
24-Jun-20 18:23 44.498776 -122.915296 23 7005ft 112kts
24-Jun-20 18:24 44.525488 -122.893264 24 7016ft 110kts
24-Jun-20 18:25 44.551750 -122.871052 25 7033ft 110kts
24-Jun-20 18:26 44.577595 -122.847607 27 7056ft 110kts
24-Jun-20 18:27 44.603865 -122.824776 21 7032ft 110kts
24-Jun-20 18:28 44.631306 -122.806074 20 7018ft 109kts
24-Jun-20 18:29 44.658084 -122.785324 26 7004ft 110kts
24-Jun-20 18:30 44.683976 -122.761587 23 6996ft 109kts
24-Jun-20 18:31 44.710474 -122.740728 20 7004ft 108kts
24-Jun-20 18:32 44.737053 -122.720045 24 6995ft 110kts
24-Jun-20 18:33 44.762873 -122.696863 28 7054ft 111kts
24-Jun-20 18:34 44.789339 -122.674880 21 7019ft 110kts
24-Jun-20 18:35 44.816244 -122.654502 23 7012ft 109kts
24-Jun-20 18:36 44.841876 -122.631430 28 7031ft 109kts
24-Jun-20 18:37 44.868232 -122.611712 17 7032ft 106kts
24-Jun-20 18:38 44.896076 -122.609621 347 7023ft 101kts
24-Jun-20 18:39 44.924657 -122.614274 352 6982ft 114kts
24-Jun-20 18:40 44.957660 -122.614650 6 7112ft 122kts
24-Jun-20 18:41 44.991533 -122.611351 0 7029ft 122kts
24-Jun-20 18:42 45.025353 -122.609628 359 7026ft 121kts
24-Jun-20 18:43 45.059214 -122.607143 2 7052ft 118kts
24-Jun-20 18:44 45.087063 -122.604141 4 7002ft 97kts
24-Jun-20 18:45 45.113668 -122.603273 0 7029ft 96kts
24-Jun-20 18:46 45.140382 -122.603658 356 7035ft 96kts
24-Jun-20 18:47 45.166860 -122.608313 353 7031ft 94kts
24-Jun-20 18:48 45.193172 -122.610954 5 7036ft 97kts
24-Jun-20 18:49 45.220142 -122.606681 1 6876ft 120kts
24-Jun-20 18:50 45.254113 -122.600692 1 7036ft 125kts
24-Jun-20 18:51 45.288449 -122.595543 352 6702ft 122kts
24-Jun-20 18:52 45.322026 -122.599832 346 6131ft 119kts
24-Jun-20 18:53 45.354715 -122.601327 357 5522ft 119kts
24-Jun-20 18:54 45.386773 -122.598017 351 4781ft 112kts
24-Jun-20 18:55 45.417075 -122.600275 349 3944ft 106kts
24-Jun-20 18:56 45.446381 -122.598940 357 3035ft 104kts
24-Jun-20 18:57 45.475047 -122.596330 353 2267ft 102kts
24-Jun-20 18:58 45.503506 -122.598198 352 1760ft 102kts
24-Jun-20 18:59 45.525838 -122.572317 43 1705ft 108kts
24-Jun-20 19:00 45.539387 -122.533841 48 1741ft 108kts
24-Jun-20 19:01 45.562842 -122.537585 297 1335ft 89kts
24-Jun-20 19:02 45.573157 -122.564628 294 593ft 64kts
24-Jun-20 19:03 45.581394 -122.586171 297 20ft 51kts
24-Jun-20 19:04 45.582970 -122.592863 209 17ft 0kts
24-Jun-20 19:05 45.584039 -122.596199 298 17ft 31kts
24-Jun-20 19:06 45.585769 -122.604042 159 17ft 0kts

Navigation Log

Ident Type
Flight plan parsing failed, navigation log unavailable